sensor_id;sensor_type;location;lat;lon;timestamp;temperature;humidity
16966;DHT22;8599;47.852;12.070;2022-10-31T00:00:05;12.60;99.90
16966;DHT22;8599;47.852;12.070;2022-10-31T00:02:32;12.70;99.90
16966;DHT22;8599;47.852;12.070;2022-10-31T00:04:58;12.60;99.90
16966;DHT22;8599;47.852;12.070;2022-10-31T00:07:27;12.60;99.90
16966;DHT22;8599;47.852;12.070;2022-10-31T00:09:53;12.60;99.90
16966;DHT22;8599;47.852;12.070;2022-10-31T00:12:20;12.60;99.90
16966;DHT22;8599;47.852;12.070;2022-10-31T00:14:47;12.30;99.90
16966;DHT22;8599;47.852;12.070;2022-10-31T00:17:14;12.20;99.90
16966;DHT22;8599;47.852;12.070;2022-10-31T00:19:40;12.20;99.90
16966;DHT22;8599;47.852;12.070;2022-10-31T00:22:07;12.10;99.90
16966;DHT22;8599;47.852;12.070;2022-10-31T00:24:35;12.10;99.90
16966;DHT22;8599;47.852;12.070;2022-10-31T00:27:02;12.10;99.90
16966;DHT22;8599;47.852;12.070;2022-10-31T00:29:29;12.10;99.90
16966;DHT22;8599;47.852;12.070;2022-10-31T00:31:56;12.20;99.90
16966;DHT22;8599;47.852;12.070;2022-10-31T00:34:23;12.20;99.90
16966;DHT22;8599;47.852;12.070;2022-10-31T00:36:49;12.20;99.90
16966;DHT22;8599;47.852;12.070;2022-10-31T00:39:16;12.10;99.90
16966;DHT22;8599;47.852;12.070;2022-10-31T00:41:44;12.00;99.90
16966;DHT22;8599;47.852;12.070;2022-10-31T00:44:11;12.00;99.90
16966;DHT22;8599;47.852;12.070;2022-10-31T00:46:38;12.10;99.90
16966;DHT22;8599;47.852;12.070;2022-10-31T00:49:04;12.10;99.90
16966;DHT22;8599;47.852;12.070;2022-10-31T00:51:31;12.10;99.90
16966;DHT22;8599;47.852;12.070;2022-10-31T00:53:58;12.10;99.90
16966;DHT22;8599;47.852;12.070;2022-10-31T00:56:25;12.10;99.90
16966;DHT22;8599;47.852;12.070;2022-10-31T00:58:53;12.20;99.90
16966;DHT22;8599;47.852;12.070;2022-10-31T01:01:20;12.20;99.90
16966;DHT22;8599;47.852;12.070;2022-10-31T01:03:46;12.30;99.90
16966;DHT22;8599;47.852;12.070;2022-10-31T01:06:13;12.30;99.90
16966;DHT22;8599;47.852;12.070;2022-10-31T01:08:41;12.30;99.90
16966;DHT22;8599;47.852;12.070;2022-10-31T01:11:11;12.30;99.90
16966;DHT22;8599;47.852;12.070;2022-10-31T01:13:38;12.30;99.90
16966;DHT22;8599;47.852;12.070;2022-10-31T01:16:09;12.20;99.90
16966;DHT22;8599;47.852;12.070;2022-10-31T01:18:36;12.20;99.90
16966;DHT22;8599;47.852;12.070;2022-10-31T01:21:06;12.20;99.90
16966;DHT22;8599;47.852;12.070;2022-10-31T01:23:33;11.90;99.90
16966;DHT22;8599;47.852;12.070;2022-10-31T01:26:08;11.90;99.90
16966;DHT22;8599;47.852;12.070;2022-10-31T01:28:37;11.80;99.90
16966;DHT22;8599;47.852;12.070;2022-10-31T01:31:05;11.80;99.90
16966;DHT22;8599;47.852;12.070;2022-10-31T01:33:34;11.80;99.90
16966;DHT22;8599;47.852;12.070;2022-10-31T01:36:11;11.90;99.90
16966;DHT22;8599;47.852;12.070;2022-10-31T01:38:38;11.70;99.90
16966;DHT22;8599;47.852;12.070;2022-10-31T01:41:05;11.80;99.90
16966;DHT22;8599;47.852;12.070;2022-10-31T01:43:45;11.80;99.90
16966;DHT22;8599;47.852;12.070;2022-10-31T01:46:14;11.80;99.90
16966;DHT22;8599;47.852;12.070;2022-10-31T01:48:42;11.70;99.90
16966;DHT22;8599;47.852;12.070;2022-10-31T01:51:12;11.80;99.90
16966;DHT22;8599;47.852;12.070;2022-10-31T01:53:41;11.80;99.90
16966;DHT22;8599;47.852;12.070;2022-10-31T01:56:08;11.70;99.90
16966;DHT22;8599;47.852;12.070;2022-10-31T01:58:36;11.60;99.90
16966;DHT22;8599;47.852;12.070;2022-10-31T02:01:03;11.60;99.90
16966;DHT22;8599;47.852;12.070;2022-10-31T02:03:31;11.60;99.90
16966;DHT22;8599;47.852;12.070;2022-10-31T02:06:00;11.70;99.90
16966;DHT22;8599;47.852;12.070;2022-10-31T02:08:28;11.60;99.90
16966;DHT22;8599;47.852;12.070;2022-10-31T02:10:56;11.60;99.90
16966;DHT22;8599;47.852;12.070;2022-10-31T02:13:25;11.50;99.90
16966;DHT22;8599;47.852;12.070;2022-10-31T02:15:53;11.30;99.90
16966;DHT22;8599;47.852;12.070;2022-10-31T02:18:21;11.30;99.90
16966;DHT22;8599;47.852;12.070;2022-10-31T02:20:56;11.30;99.90
16966;DHT22;8599;47.852;12.070;2022-10-31T02:26:49;11.30;99.90
16966;DHT22;8599;47.852;12.070;2022-10-31T02:32:37;11.20;99.90
16966;DHT22;8599;47.852;12.070;2022-10-31T02:35:11;11.20;99.90
16966;DHT22;8599;47.852;12.070;2022-10-31T02:37:45;11.20;99.90
16966;DHT22;8599;47.852;12.070;2022-10-31T02:40:19;11.10;99.90
16966;DHT22;8599;47.852;12.070;2022-10-31T02:42:53;11.10;99.90
16966;DHT22;8599;47.852;12.070;2022-10-31T02:45:27;11.20;99.90
16966;DHT22;8599;47.852;12.070;2022-10-31T02:47:59;11.30;99.90
16966;DHT22;8599;47.852;12.070;2022-10-31T02:50:29;11.30;99.90
16966;DHT22;8599;47.852;12.070;2022-10-31T02:52:57;11.20;99.90
16966;DHT22;8599;47.852;12.070;2022-10-31T02:55:44;11.00;99.90
16966;DHT22;8599;47.852;12.070;2022-10-31T02:58:15;10.70;99.90
16966;DHT22;8599;47.852;12.070;2022-10-31T03:01:06;10.50;99.90
16966;DHT22;8599;47.852;12.070;2022-10-31T03:03:43;10.40;99.90
16966;DHT22;8599;47.852;12.070;2022-10-31T03:06:19;10.30;99.90
16966;DHT22;8599;47.852;12.070;2022-10-31T03:08:54;10.30;99.90
16966;DHT22;8599;47.852;12.070;2022-10-31T03:11:24;10.40;99.90
16966;DHT22;8599;47.852;12.070;2022-10-31T03:14:00;10.50;99.90
16966;DHT22;8599;47.852;12.070;2022-10-31T03:16:37;10.60;99.90
16966;DHT22;8599;47.852;12.070;2022-10-31T03:19:09;10.50;99.90
16966;DHT22;8599;47.852;12.070;2022-10-31T03:21:40;10.60;99.90
16966;DHT22;8599;47.852;12.070;2022-10-31T03:24:09;10.50;99.90
16966;DHT22;8599;47.852;12.070;2022-10-31T03:26:39;10.50;99.90
16966;DHT22;8599;47.852;12.070;2022-10-31T03:29:10;10.50;99.90
16966;DHT22;8599;47.852;12.070;2022-10-31T03:31:42;10.50;99.90
16966;DHT22;8599;47.852;12.070;2022-10-31T03:34:12;10.50;99.90
16966;DHT22;8599;47.852;12.070;2022-10-31T03:36:40;10.50;99.90
16966;DHT22;8599;47.852;12.070;2022-10-31T03:39:10;10.60;99.90
16966;DHT22;8599;47.852;12.070;2022-10-31T03:41:42;10.60;99.90
16966;DHT22;8599;47.852;12.070;2022-10-31T03:44:12;10.70;99.90
16966;DHT22;8599;47.852;12.070;2022-10-31T03:46:42;10.80;99.90
16966;DHT22;8599;47.852;12.070;2022-10-31T03:49:11;10.80;99.90
16966;DHT22;8599;47.852;12.070;2022-10-31T03:51:42;10.80;99.90
16966;DHT22;8599;47.852;12.070;2022-10-31T03:54:16;10.80;99.90
16966;DHT22;8599;47.852;12.070;2022-10-31T03:56:50;10.70;99.90
16966;DHT22;8599;47.852;12.070;2022-10-31T03:59:21;10.60;99.90
16966;DHT22;8599;47.852;12.070;2022-10-31T04:01:52;10.60;99.90
16966;DHT22;8599;47.852;12.070;2022-10-31T04:04:22;10.70;99.90
16966;DHT22;8599;47.852;12.070;2022-10-31T04:06:50;10.70;99.90
16966;DHT22;8599;47.852;12.070;2022-10-31T04:09:19;10.60;99.90
16966;DHT22;8599;47.852;12.070;2022-10-31T04:11:50;10.70;99.90
16966;DHT22;8599;47.852;12.070;2022-10-31T04:14:18;10.80;99.90
16966;DHT22;8599;47.852;12.070;2022-10-31T04:16:45;10.80;99.90
16966;DHT22;8599;47.852;12.070;2022-10-31T04:19:13;10.80;99.90
16966;DHT22;8599;47.852;12.070;2022-10-31T04:21:42;10.60;99.90
16966;DHT22;8599;47.852;12.070;2022-10-31T04:24:09;10.60;99.90
16966;DHT22;8599;47.852;12.070;2022-10-31T04:26:36;10.60;99.90
16966;DHT22;8599;47.852;12.070;2022-10-31T04:29:04;10.50;99.90
16966;DHT22;8599;47.852;12.070;2022-10-31T04:31:31;10.50;99.90
16966;DHT22;8599;47.852;12.070;2022-10-31T04:33:58;10.50;99.90
16966;DHT22;8599;47.852;12.070;2022-10-31T04:36:25;10.60;99.90
16966;DHT22;8599;47.852;12.070;2022-10-31T04:38:53;10.60;99.90
16966;DHT22;8599;47.852;12.070;2022-10-31T04:41:20;10.60;99.90
16966;DHT22;8599;47.852;12.070;2022-10-31T04:43:46;10.40;99.90
16966;DHT22;8599;47.852;12.070;2022-10-31T04:46:13;10.40;99.90
16966;DHT22;8599;47.852;12.070;2022-10-31T04:48:40;10.30;99.90
16966;DHT22;8599;47.852;12.070;2022-10-31T04:51:07;10.30;99.90
16966;DHT22;8599;47.852;12.070;2022-10-31T04:53:34;10.20;99.90
16966;DHT22;8599;47.852;12.070;2022-10-31T04:56:02;10.20;99.90
16966;DHT22;8599;47.852;12.070;2022-10-31T04:58:29;10.20;99.90
16966;DHT22;8599;47.852;12.070;2022-10-31T05:00:56;10.10;99.90
16966;DHT22;8599;47.852;12.070;2022-10-31T05:03:23;10.00;99.90
16966;DHT22;8599;47.852;12.070;2022-10-31T05:05:49;10.10;99.90
16966;DHT22;8599;47.852;12.070;2022-10-31T05:08:16;10.10;99.90
16966;DHT22;8599;47.852;12.070;2022-10-31T05:10:43;10.10;99.90
16966;DHT22;8599;47.852;12.070;2022-10-31T05:13:11;10.20;99.90
16966;DHT22;8599;47.852;12.070;2022-10-31T05:15:40;10.10;99.90
16966;DHT22;8599;47.852;12.070;2022-10-31T05:18:07;10.00;99.90
16966;DHT22;8599;47.852;12.070;2022-10-31T05:20:33;10.00;99.90
16966;DHT22;8599;47.852;12.070;2022-10-31T05:23:00;9.80;99.90
16966;DHT22;8599;47.852;12.070;2022-10-31T05:25:28;9.70;99.90
16966;DHT22;8599;47.852;12.070;2022-10-31T05:27:55;9.50;99.90
16966;DHT22;8599;47.852;12.070;2022-10-31T05:30:26;9.50;99.90
16966;DHT22;8599;47.852;12.070;2022-10-31T05:32:53;9.60;99.90
16966;DHT22;8599;47.852;12.070;2022-10-31T05:35:22;9.70;99.90
16966;DHT22;8599;47.852;12.070;2022-10-31T05:37:49;9.70;99.90
16966;DHT22;8599;47.852;12.070;2022-10-31T05:40:17;9.80;99.90
16966;DHT22;8599;47.852;12.070;2022-10-31T05:42:45;9.80;99.90
16966;DHT22;8599;47.852;12.070;2022-10-31T05:45:14;9.90;99.90
16966;DHT22;8599;47.852;12.070;2022-10-31T05:47:42;9.70;99.90
16966;DHT22;8599;47.852;12.070;2022-10-31T05:50:10;9.70;99.90
16966;DHT22;8599;47.852;12.070;2022-10-31T05:52:36;9.70;99.90
16966;DHT22;8599;47.852;12.070;2022-10-31T05:55:04;9.70;99.90
16966;DHT22;8599;47.852;12.070;2022-10-31T05:57:32;9.70;99.90
16966;DHT22;8599;47.852;12.070;2022-10-31T05:59:59;9.60;99.90
16966;DHT22;8599;47.852;12.070;2022-10-31T06:02:26;9.60;99.90
16966;DHT22;8599;47.852;12.070;2022-10-31T06:04:58;9.50;99.90
16966;DHT22;8599;47.852;12.070;2022-10-31T06:07:25;9.40;99.90
16966;DHT22;8599;47.852;12.070;2022-10-31T06:09:52;9.50;99.90
16966;DHT22;8599;47.852;12.070;2022-10-31T06:12:18;9.50;99.90
16966;DHT22;8599;47.852;12.070;2022-10-31T06:14:45;9.50;99.90
16966;DHT22;8599;47.852;12.070;2022-10-31T06:17:12;9.60;99.90
16966;DHT22;8599;47.852;12.070;2022-10-31T06:19:39;9.60;99.90
16966;DHT22;8599;47.852;12.070;2022-10-31T06:22:07;9.70;99.90
16966;DHT22;8599;47.852;12.070;2022-10-31T06:24:34;9.70;99.90
16966;DHT22;8599;47.852;12.070;2022-10-31T06:27:00;9.80;99.90
16966;DHT22;8599;47.852;12.070;2022-10-31T06:29:27;9.80;99.90
16966;DHT22;8599;47.852;12.070;2022-10-31T06:31:54;9.90;99.90
16966;DHT22;8599;47.852;12.070;2022-10-31T06:34:21;10.00;99.90
16966;DHT22;8599;47.852;12.070;2022-10-31T06:36:48;10.00;99.90
16966;DHT22;8599;47.852;12.070;2022-10-31T06:39:16;10.10;99.90
16966;DHT22;8599;47.852;12.070;2022-10-31T06:41:43;10.10;99.90
16966;DHT22;8599;47.852;12.070;2022-10-31T06:44:10;10.10;99.90
16966;DHT22;8599;47.852;12.070;2022-10-31T06:46:37;10.10;99.90
16966;DHT22;8599;47.852;12.070;2022-10-31T06:49:03;10.10;99.90
16966;DHT22;8599;47.852;12.070;2022-10-31T06:51:30;10.20;99.90
16966;DHT22;8599;47.852;12.070;2022-10-31T06:53:57;10.30;99.90
16966;DHT22;8599;47.852;12.070;2022-10-31T06:56:25;10.40;99.90
16966;DHT22;8599;47.852;12.070;2022-10-31T06:58:52;10.50;99.90
16966;DHT22;8599;47.852;12.070;2022-10-31T07:01:19;10.60;99.90
16966;DHT22;8599;47.852;12.070;2022-10-31T07:03:45;10.60;99.90
16966;DHT22;8599;47.852;12.070;2022-10-31T07:06:12;10.60;99.90
16966;DHT22;8599;47.852;12.070;2022-10-31T07:08:39;10.60;99.90
16966;DHT22;8599;47.852;12.070;2022-10-31T07:11:06;10.60;99.90
16966;DHT22;8599;47.852;12.070;2022-10-31T07:13:34;10.70;99.90
16966;DHT22;8599;47.852;12.070;2022-10-31T07:16:04;10.70;99.90
16966;DHT22;8599;47.852;12.070;2022-10-31T07:18:32;10.80;99.90
16966;DHT22;8599;47.852;12.070;2022-10-31T07:20:59;10.90;99.90
16966;DHT22;8599;47.852;12.070;2022-10-31T07:23:26;11.00;99.90
16966;DHT22;8599;47.852;12.070;2022-10-31T07:25:55;11.10;99.90
16966;DHT22;8599;47.852;12.070;2022-10-31T07:28:21;11.20;99.90
16966;DHT22;8599;47.852;12.070;2022-10-31T07:30:51;11.30;99.90
16966;DHT22;8599;47.852;12.070;2022-10-31T07:33:18;11.40;99.90
16966;DHT22;8599;47.852;12.070;2022-10-31T07:35:45;11.40;99.90
16966;DHT22;8599;47.852;12.070;2022-10-31T07:38:13;11.50;99.90
16966;DHT22;8599;47.852;12.070;2022-10-31T07:40:40;11.60;99.90
16966;DHT22;8599;47.852;12.070;2022-10-31T07:43:07;11.70;99.90
16966;DHT22;8599;47.852;12.070;2022-10-31T07:45:34;11.70;99.90
16966;DHT22;8599;47.852;12.070;2022-10-31T07:48:03;11.80;99.90
16966;DHT22;8599;47.852;12.070;2022-10-31T07:50:31;11.90;99.90
16966;DHT22;8599;47.852;12.070;2022-10-31T07:52:59;12.00;99.90
16966;DHT22;8599;47.852;12.070;2022-10-31T07:55:27;12.10;99.90
16966;DHT22;8599;47.852;12.070;2022-10-31T07:57:58;12.10;99.90
16966;DHT22;8599;47.852;12.070;2022-10-31T08:00:26;12.20;99.90
16966;DHT22;8599;47.852;12.070;2022-10-31T08:02:57;12.30;99.90
16966;DHT22;8599;47.852;12.070;2022-10-31T08:05:25;12.40;99.90
16966;DHT22;8599;47.852;12.070;2022-10-31T08:07:52;12.40;99.90
16966;DHT22;8599;47.852;12.070;2022-10-31T08:10:19;12.50;99.90
16966;DHT22;8599;47.852;12.070;2022-10-31T08:12:46;12.60;99.90
16966;DHT22;8599;47.852;12.070;2022-10-31T08:15:13;12.70;99.90
16966;DHT22;8599;47.852;12.070;2022-10-31T08:17:40;12.90;99.90
16966;DHT22;8599;47.852;12.070;2022-10-31T08:20:07;13.00;99.90
16966;DHT22;8599;47.852;12.070;2022-10-31T08:22:36;13.10;99.90
16966;DHT22;8599;47.852;12.070;2022-10-31T08:25:03;13.20;99.90
16966;DHT22;8599;47.852;12.070;2022-10-31T08:27:30;13.30;99.90
16966;DHT22;8599;47.852;12.070;2022-10-31T08:29:57;13.40;99.90
16966;DHT22;8599;47.852;12.070;2022-10-31T08:32:24;13.40;99.90
16966;DHT22;8599;47.852;12.070;2022-10-31T08:34:51;13.60;99.90
16966;DHT22;8599;47.852;12.070;2022-10-31T08:37:17;13.70;99.90
16966;DHT22;8599;47.852;12.070;2022-10-31T08:39:46;13.70;99.90
16966;DHT22;8599;47.852;12.070;2022-10-31T08:42:13;13.80;99.90
16966;DHT22;8599;47.852;12.070;2022-10-31T08:44:40;13.80;99.90
16966;DHT22;8599;47.852;12.070;2022-10-31T08:47:07;13.90;99.90
16966;DHT22;8599;47.852;12.070;2022-10-31T08:49:34;14.00;99.90
16966;DHT22;8599;47.852;12.070;2022-10-31T08:52:00;14.00;99.90
16966;DHT22;8599;47.852;12.070;2022-10-31T08:54:27;14.10;99.90
16966;DHT22;8599;47.852;12.070;2022-10-31T08:56:56;14.10;99.90
16966;DHT22;8599;47.852;12.070;2022-10-31T08:59:22;14.10;99.90
16966;DHT22;8599;47.852;12.070;2022-10-31T09:01:49;14.20;99.90
16966;DHT22;8599;47.852;12.070;2022-10-31T09:04:16;14.30;99.90
16966;DHT22;8599;47.852;12.070;2022-10-31T09:06:43;14.30;99.90
16966;DHT22;8599;47.852;12.070;2022-10-31T09:09:09;14.30;99.90
16966;DHT22;8599;47.852;12.070;2022-10-31T09:11:36;14.40;99.90
16966;DHT22;8599;47.852;12.070;2022-10-31T09:14:04;14.40;99.90
16966;DHT22;8599;47.852;12.070;2022-10-31T09:16:31;14.40;99.90
16966;DHT22;8599;47.852;12.070;2022-10-31T09:18:58;14.50;99.90
16966;DHT22;8599;47.852;12.070;2022-10-31T09:21:25;14.50;99.90
16966;DHT22;8599;47.852;12.070;2022-10-31T09:23:51;14.70;99.90
16966;DHT22;8599;47.852;12.070;2022-10-31T09:26:19;14.70;99.90
16966;DHT22;8599;47.852;12.070;2022-10-31T09:28:46;14.70;99.90
16966;DHT22;8599;47.852;12.070;2022-10-31T09:31:14;14.80;99.90
16966;DHT22;8599;47.852;12.070;2022-10-31T09:33:41;14.90;99.90
16966;DHT22;8599;47.852;12.070;2022-10-31T09:36:08;14.90;99.90
16966;DHT22;8599;47.852;12.070;2022-10-31T09:38:35;15.00;99.90
16966;DHT22;8599;47.852;12.070;2022-10-31T09:41:11;15.00;99.90
16966;DHT22;8599;47.852;12.070;2022-10-31T09:43:48;15.00;99.90
16966;DHT22;8599;47.852;12.070;2022-10-31T09:46:24;15.00;99.90
16966;DHT22;8599;47.852;12.070;2022-10-31T09:49:05;15.10;99.90
16966;DHT22;8599;47.852;12.070;2022-10-31T09:51:39;15.10;99.90
16966;DHT22;8599;47.852;12.070;2022-10-31T09:54:12;15.20;99.90
16966;DHT22;8599;47.852;12.070;2022-10-31T09:56:41;15.20;99.90
16966;DHT22;8599;47.852;12.070;2022-10-31T09:59:13;15.20;99.90
16966;DHT22;8599;47.852;12.070;2022-10-31T10:01:48;15.30;99.90
16966;DHT22;8599;47.852;12.070;2022-10-31T10:04:30;15.40;99.90
16966;DHT22;8599;47.852;12.070;2022-10-31T10:06:59;15.50;99.90
16966;DHT22;8599;47.852;12.070;2022-10-31T10:09:29;15.40;99.90
16966;DHT22;8599;47.852;12.070;2022-10-31T10:12:08;15.50;99.90
16966;DHT22;8599;47.852;12.070;2022-10-31T10:14:46;15.50;99.90
16966;DHT22;8599;47.852;12.070;2022-10-31T10:17:25;15.50;99.90
16966;DHT22;8599;47.852;12.070;2022-10-31T10:20:10;15.60;99.90
16966;DHT22;8599;47.852;12.070;2022-10-31T10:22:42;15.60;99.90
16966;DHT22;8599;47.852;12.070;2022-10-31T10:25:21;15.70;99.90
16966;DHT22;8599;47.852;12.070;2022-10-31T10:28:10;15.80;99.90
16966;DHT22;8599;47.852;12.070;2022-10-31T10:30:41;15.80;99.90
16966;DHT22;8599;47.852;12.070;2022-10-31T10:33:13;15.80;99.90
16966;DHT22;8599;47.852;12.070;2022-10-31T10:35:43;15.80;99.90
16966;DHT22;8599;47.852;12.070;2022-10-31T10:38:17;15.90;99.90
16966;DHT22;8599;47.852;12.070;2022-10-31T10:40:46;16.00;99.90
16966;DHT22;8599;47.852;12.070;2022-10-31T10:43:23;16.10;99.90
16966;DHT22;8599;47.852;12.070;2022-10-31T10:46:00;16.20;99.90
16966;DHT22;8599;47.852;12.070;2022-10-31T10:48:54;16.30;99.90
16966;DHT22;8599;47.852;12.070;2022-10-31T10:51:25;16.50;99.90
16966;DHT22;8599;47.852;12.070;2022-10-31T10:54:07;16.60;99.90
16966;DHT22;8599;47.852;12.070;2022-10-31T10:56:54;16.70;99.90
16966;DHT22;8599;47.852;12.070;2022-10-31T10:59:23;16.80;99.90
16966;DHT22;8599;47.852;12.070;2022-10-31T11:01:51;16.80;99.90
16966;DHT22;8599;47.852;12.070;2022-10-31T11:04:28;16.90;99.90
16966;DHT22;8599;47.852;12.070;2022-10-31T11:07:05;17.00;99.90
16966;DHT22;8599;47.852;12.070;2022-10-31T11:09:32;17.00;99.90
16966;DHT22;8599;47.852;12.070;2022-10-31T11:12:05;17.00;99.90
16966;DHT22;8599;47.852;12.070;2022-10-31T11:14:36;17.00;99.90
16966;DHT22;8599;47.852;12.070;2022-10-31T11:17:14;17.00;99.90
16966;DHT22;8599;47.852;12.070;2022-10-31T11:19:43;17.00;99.90
16966;DHT22;8599;47.852;12.070;2022-10-31T11:22:16;17.00;99.90
16966;DHT22;8599;47.852;12.070;2022-10-31T11:24:44;17.00;99.90
16966;DHT22;8599;47.852;12.070;2022-10-31T11:27:16;16.90;99.90
16966;DHT22;8599;47.852;12.070;2022-10-31T11:29:43;16.90;99.90
16966;DHT22;8599;47.852;12.070;2022-10-31T11:32:18;17.00;99.90
16966;DHT22;8599;47.852;12.070;2022-10-31T11:34:49;16.90;99.90
16966;DHT22;8599;47.852;12.070;2022-10-31T11:37:20;16.90;99.90
16966;DHT22;8599;47.852;12.070;2022-10-31T11:39:50;16.90;99.90
16966;DHT22;8599;47.852;12.070;2022-10-31T11:42:21;16.90;99.90
16966;DHT22;8599;47.852;12.070;2022-10-31T11:44:50;17.00;99.90
16966;DHT22;8599;47.852;12.070;2022-10-31T11:47:21;17.00;99.90
16966;DHT22;8599;47.852;12.070;2022-10-31T11:49:51;17.00;99.90
16966;DHT22;8599;47.852;12.070;2022-10-31T11:52:20;17.00;99.90
16966;DHT22;8599;47.852;12.070;2022-10-31T11:54:52;17.10;99.90
16966;DHT22;8599;47.852;12.070;2022-10-31T11:57:27;17.10;99.90
16966;DHT22;8599;47.852;12.070;2022-10-31T11:59:56;17.10;99.90
16966;DHT22;8599;47.852;12.070;2022-10-31T12:02:24;17.10;99.90
16966;DHT22;8599;47.852;12.070;2022-10-31T12:04:59;17.20;99.90
16966;DHT22;8599;47.852;12.070;2022-10-31T12:07:27;17.30;99.90
16966;DHT22;8599;47.852;12.070;2022-10-31T12:09:54;17.30;99.90
16966;DHT22;8599;47.852;12.070;2022-10-31T12:12:33;17.40;99.90
16966;DHT22;8599;47.852;12.070;2022-10-31T12:15:13;17.30;99.90
16966;DHT22;8599;47.852;12.070;2022-10-31T12:17:45;17.40;99.90
16966;DHT22;8599;47.852;12.070;2022-10-31T12:20:26;17.50;99.90
16966;DHT22;8599;47.852;12.070;2022-10-31T12:23:02;17.40;99.90
16966;DHT22;8599;47.852;12.070;2022-10-31T12:25:37;17.40;99.90
16966;DHT22;8599;47.852;12.070;2022-10-31T12:28:25;17.40;99.90
16966;DHT22;8599;47.852;12.070;2022-10-31T12:31:01;17.50;99.90
16966;DHT22;8599;47.852;12.070;2022-10-31T12:33:41;17.50;99.90
16966;DHT22;8599;47.852;12.070;2022-10-31T12:36:25;17.60;99.90
16966;DHT22;8599;47.852;12.070;2022-10-31T12:39:12;17.60;99.90
16966;DHT22;8599;47.852;12.070;2022-10-31T12:41:52;17.60;99.90
16966;DHT22;8599;47.852;12.070;2022-10-31T12:44:33;17.60;99.90
16966;DHT22;8599;47.852;12.070;2022-10-31T12:47:23;17.60;99.90
16966;DHT22;8599;47.852;12.070;2022-10-31T12:50:02;17.60;99.90
16966;DHT22;8599;47.852;12.070;2022-10-31T12:53:11;17.50;99.90
16966;DHT22;8599;47.852;12.070;2022-10-31T12:55:52;17.50;99.90
16966;DHT22;8599;47.852;12.070;2022-10-31T12:58:23;17.50;99.90
16966;DHT22;8599;47.852;12.070;2022-10-31T13:01:02;17.60;99.90
16966;DHT22;8599;47.852;12.070;2022-10-31T13:03:36;17.60;99.90
16966;DHT22;8599;47.852;12.070;2022-10-31T13:06:09;17.60;99.90
16966;DHT22;8599;47.852;12.070;2022-10-31T13:08:43;17.60;99.90
16966;DHT22;8599;47.852;12.070;2022-10-31T13:11:15;17.60;99.90
16966;DHT22;8599;47.852;12.070;2022-10-31T13:13:49;17.70;99.90
16966;DHT22;8599;47.852;12.070;2022-10-31T13:16:20;17.70;99.90
16966;DHT22;8599;47.852;12.070;2022-10-31T13:18:52;17.60;99.90
16966;DHT22;8599;47.852;12.070;2022-10-31T13:21:23;17.60;99.90
16966;DHT22;8599;47.852;12.070;2022-10-31T13:23:55;17.60;99.90
16966;DHT22;8599;47.852;12.070;2022-10-31T13:26:34;17.60;99.90
16966;DHT22;8599;47.852;12.070;2022-10-31T13:29:21;17.60;99.90
16966;DHT22;8599;47.852;12.070;2022-10-31T13:31:49;17.60;99.90
16966;DHT22;8599;47.852;12.070;2022-10-31T13:34:22;17.60;99.90
16966;DHT22;8599;47.852;12.070;2022-10-31T13:36:57;17.60;99.90
16966;DHT22;8599;47.852;12.070;2022-10-31T13:39:33;17.60;99.90
16966;DHT22;8599;47.852;12.070;2022-10-31T13:42:11;17.60;99.90
16966;DHT22;8599;47.852;12.070;2022-10-31T13:44:39;17.60;99.90
16966;DHT22;8599;47.852;12.070;2022-10-31T13:47:22;17.60;99.90
16966;DHT22;8599;47.852;12.070;2022-10-31T13:49:49;17.60;99.90
16966;DHT22;8599;47.852;12.070;2022-10-31T13:52:23;17.70;99.90
16966;DHT22;8599;47.852;12.070;2022-10-31T13:54:53;17.80;99.90
16966;DHT22;8599;47.852;12.070;2022-10-31T13:57:29;18.00;99.90
16966;DHT22;8599;47.852;12.070;2022-10-31T13:59:59;18.30;99.90
16966;DHT22;8599;47.852;12.070;2022-10-31T14:02:28;18.50;99.90
16966;DHT22;8599;47.852;12.070;2022-10-31T14:04:58;18.80;99.90
16966;DHT22;8599;47.852;12.070;2022-10-31T14:07:27;19.30;99.90
16966;DHT22;8599;47.852;12.070;2022-10-31T14:09:59;19.60;99.90
16966;DHT22;8599;47.852;12.070;2022-10-31T14:12:30;20.00;99.90
16966;DHT22;8599;47.852;12.070;2022-10-31T14:15:01;20.20;99.90
16966;DHT22;8599;47.852;12.070;2022-10-31T14:17:37;20.40;99.90
16966;DHT22;8599;47.852;12.070;2022-10-31T14:20:34;20.60;99.90
16966;DHT22;8599;47.852;12.070;2022-10-31T14:23:32;20.60;99.90
16966;DHT22;8599;47.852;12.070;2022-10-31T14:26:29;20.70;99.90
16966;DHT22;8599;47.852;12.070;2022-10-31T14:28:57;21.00;99.90
16966;DHT22;8599;47.852;12.070;2022-10-31T14:31:36;21.00;99.90
16966;DHT22;8599;47.852;12.070;2022-10-31T14:34:19;20.90;99.90
16966;DHT22;8599;47.852;12.070;2022-10-31T14:36:55;21.00;99.90
16966;DHT22;8599;47.852;12.070;2022-10-31T14:39:26;21.10;99.90
16966;DHT22;8599;47.852;12.070;2022-10-31T14:42:09;21.20;99.90
16966;DHT22;8599;47.852;12.070;2022-10-31T14:45:01;21.10;99.90
16966;DHT22;8599;47.852;12.070;2022-10-31T14:47:39;20.90;99.90
16966;DHT22;8599;47.852;12.070;2022-10-31T14:50:37;20.80;99.90
16966;DHT22;8599;47.852;12.070;2022-10-31T14:53:12;20.60;99.90
16966;DHT22;8599;47.852;12.070;2022-10-31T14:55:43;20.20;99.90
16966;DHT22;8599;47.852;12.070;2022-10-31T14:58:18;19.90;99.90
16966;DHT22;8599;47.852;12.070;2022-10-31T15:00:45;19.60;99.90
16966;DHT22;8599;47.852;12.070;2022-10-31T15:03:15;19.60;99.90
16966;DHT22;8599;47.852;12.070;2022-10-31T15:05:50;19.50;99.90
16966;DHT22;8599;47.852;12.070;2022-10-31T15:08:32;19.30;99.90
16966;DHT22;8599;47.852;12.070;2022-10-31T15:11:03;19.10;99.90
16966;DHT22;8599;47.852;12.070;2022-10-31T15:13:31;18.90;99.90
16966;DHT22;8599;47.852;12.070;2022-10-31T15:15:58;18.70;99.90
16966;DHT22;8599;47.852;12.070;2022-10-31T15:18:26;18.50;99.90
16966;DHT22;8599;47.852;12.070;2022-10-31T15:20:55;18.30;99.90
16966;DHT22;8599;47.852;12.070;2022-10-31T15:23:25;18.20;99.90
16966;DHT22;8599;47.852;12.070;2022-10-31T15:25:58;18.10;99.90
16966;DHT22;8599;47.852;12.070;2022-10-31T15:28:26;18.00;99.90
16966;DHT22;8599;47.852;12.070;2022-10-31T15:30:56;17.90;99.90
16966;DHT22;8599;47.852;12.070;2022-10-31T15:33:25;17.90;99.90
16966;DHT22;8599;47.852;12.070;2022-10-31T15:35:57;17.80;99.90
16966;DHT22;8599;47.852;12.070;2022-10-31T15:38:25;17.60;99.90
16966;DHT22;8599;47.852;12.070;2022-10-31T15:40:55;17.50;99.90
16966;DHT22;8599;47.852;12.070;2022-10-31T15:43:23;17.40;99.90
16966;DHT22;8599;47.852;12.070;2022-10-31T15:45:50;17.40;99.90
16966;DHT22;8599;47.852;12.070;2022-10-31T15:48:22;17.20;99.90
16966;DHT22;8599;47.852;12.070;2022-10-31T15:50:52;17.20;99.90
16966;DHT22;8599;47.852;12.070;2022-10-31T15:53:22;17.00;99.90
16966;DHT22;8599;47.852;12.070;2022-10-31T15:55:54;17.00;99.90
16966;DHT22;8599;47.852;12.070;2022-10-31T15:58:21;16.90;99.90
16966;DHT22;8599;47.852;12.070;2022-10-31T16:00:59;16.80;99.90